Time;durP1;ratioP1;P1;durP2;ratioP2;P2;SDS_P1;SDS_P2;PMS_P1;PMS_P2;Temp;Humidity;BMP_temperature;BMP_pressure;BME280_temperature;BME280_humidity;BME280_pressure;Samples;Min_cycle;Max_cycle;Signal;HPM_P1;HPM_P2
2021/01/11 00:01:41;;;;;;;19.27;15.90;;;;;;;3.24;65.43;100717.91;4934246;28;96633;-71
2021/01/11 00:04:08;;;;;;;22.30;15.80;;;;;;;3.26;65.30;100713.59;4936273;28;97771;-71
2021/01/11 00:06:41;;;;;;;29.98;21.05;;;;;;;3.55;64.12;100716.63;4935123;28;98476;-72
2021/01/11 00:09:08;;;;;;;30.70;20.98;;;;;;;3.56;63.81;100710.59;4934044;28;98320;-72
2021/01/11 00:11:35;;;;;;;32.05;19.65;;;;;;;3.48;64.26;100709.88;4935824;28;96597;-72
2021/01/11 00:14:03;;;;;;;25.85;17.23;;;;;;;3.55;63.71;100708.06;4930979;28;97691;-72
2021/01/11 00:16:29;;;;;;;25.05;18.98;;;;;;;3.38;64.24;100716.00;4913924;28;100400;-72
2021/01/11 00:18:56;;;;;;;24.83;18.80;;;;;;;3.49;63.62;100700.41;4913421;28;98583;-73
2021/01/11 00:21:23;;;;;;;28.60;19.30;;;;;;;3.55;63.40;100703.75;4911692;28;96541;-73
2021/01/11 00:23:49;;;;;;;27.33;18.98;;;;;;;3.39;63.77;100702.25;4912409;28;96775;-73
2021/01/11 00:26:15;;;;;;;21.83;16.45;;;;;;;3.38;63.64;100693.66;4927632;28;98791;-72
2021/01/11 00:28:42;;;;;;;21.95;16.80;;;;;;;3.23;64.34;100701.59;4931814;28;98689;-73
2021/01/11 00:31:09;;;;;;;20.13;15.82;;;;;;;3.31;63.80;100704.09;4930173;28;97554;-72
2021/01/11 00:33:35;;;;;;;21.40;17.10;;;;;;;3.22;64.15;100704.19;4931174;28;97127;-72
2021/01/11 00:36:03;;;;;;;22.17;18.05;;;;;;;3.22;64.18;100709.34;4931173;28;98553;-72
2021/01/11 00:38:29;;;;;;;25.73;16.95;;;;;;;3.12;64.94;100708.59;4933989;28;98765;-72
2021/01/11 00:40:56;;;;;;;27.08;17.90;;;;;;;2.71;66.67;100712.50;4932484;28;96944;-73
2021/01/11 00:43:23;;;;;;;20.42;16.52;;;;;;;2.61;66.91;100716.91;4934820;28;97035;-72
2021/01/11 00:45:49;;;;;;;19.58;14.55;;;;;;;2.70;66.63;100717.66;4930681;28;97944;-72
2021/01/11 00:48:17;;;;;;;17.80;14.05;;;;;;;2.78;65.84;100718.44;4913307;28;98663;-72
2021/01/11 00:50:43;;;;;;;17.73;14.27;;;;;;;2.75;65.92;100723.63;4913832;28;96798;-72
2021/01/11 00:53:09;;;;;;;18.38;14.02;;;;;;;2.71;65.89;100717.63;4934663;28;96791;-71
2021/01/11 00:55:36;;;;;;;15.00;11.65;;;;;;;2.76;65.63;100717.59;4932501;28;99825;-72
2021/01/11 00:58:08;;;;;;;13.27;11.13;;;;;;;2.69;66.22;100721.09;4932038;28;98825;-71
2021/01/11 01:00:41;;;;;;;17.17;11.85;;;;;;;2.79;65.52;100722.72;4929577;28;98115;-71
2021/01/11 01:03:16;;;;;;;13.05;11.75;;;;;;;2.74;65.38;100721.91;4915512;28;96689;-71
2021/01/11 01:05:42;;;;;;;15.20;11.88;;;;;;;2.71;65.95;100720.22;4914303;28;98703;-69
2021/01/11 01:08:09;;;;;;;13.52;11.20;;;;;;;2.63;66.45;100725.44;4933278;28;98736;-71
2021/01/11 01:10:35;;;;;;;15.95;12.88;;;;;;;2.68;66.54;100722.84;4934631;28;96531;-70
2021/01/11 01:13:03;;;;;;;14.23;12.32;;;;;;;2.87;65.49;100718.31;4912397;28;97332;-70
2021/01/11 01:15:29;;;;;;;13.43;12.00;;;;;;;2.76;65.46;100726.16;4913719;28;98514;-70
2021/01/11 01:17:56;;;;;;;13.13;11.02;;;;;;;2.81;65.18;100720.97;4919041;28;98705;-70
2021/01/11 01:20:22;;;;;;;15.60;12.00;;;;;;;2.68;66.03;100727.97;4933796;28;96893;-70
2021/01/11 01:22:50;;;;;;;14.43;10.52;;;;;;;2.63;65.92;100725.44;4925251;28;96913;-69
2021/01/11 01:25:17;;;;;;;15.25;11.25;;;;;;;2.57;65.94;100722.94;4914847;28;98552;-71
2021/01/11 01:27:43;;;;;;;20.17;12.23;;;;;;;2.61;65.66;100722.06;4917489;28;98576;-71
2021/01/11 01:30:10;;;;;;;13.35;9.85;;;;;;;2.63;65.66;100722.88;4932107;28;97799;-70
2021/01/11 01:32:37;;;;;;;13.15;10.05;;;;;;;2.66;65.60;100721.13;4932407;28;96574;-70
2021/01/11 01:35:08;;;;;;;14.20;11.52;;;;;;;2.59;65.71;100721.19;4932707;28;98697;-71
2021/01/11 01:37:35;;;;;;;12.55;10.80;;;;;;;2.66;65.40;100719.41;4933705;28;98576;-70
2021/01/11 01:40:04;;;;;;;12.20;10.80;;;;;;;2.72;65.69;100721.94;4933837;28;96774;-70
2021/01/11 01:42:30;;;;;;;13.70;11.82;;;;;;;2.54;66.46;100720.38;4934914;28;97546;-71
2021/01/11 01:44:57;;;;;;;14.35;11.77;;;;;;;2.48;66.15;100724.75;4918237;28;98636;-71
2021/01/11 01:47:23;;;;;;;14.82;11.32;;;;;;;2.62;65.64;100718.59;4914321;28;98580;-72
2021/01/11 01:49:50;;;;;;;12.82;11.02;;;;;;;2.68;64.99;100727.13;4912710;28;96548;-71
2021/01/11 01:52:18;;;;;;;13.30;10.45;;;;;;;2.61;65.72;100723.78;4915367;28;96524;-71
2021/01/11 01:54:44;;;;;;;13.65;9.88;;;;;;;2.49;65.96;100717.00;4898032;28;98526;-70
2021/01/11 01:57:11;;;;;;;12.90;11.02;;;;;;;2.55;65.36;100718.66;4913775;28;98428;-70
2021/01/11 01:59:37;;;;;;;15.82;10.82;;;;;;;2.58;65.33;100721.22;4904750;28;96669;-70
2021/01/11 02:02:04;;;;;;;12.35;10.18;;;;;;;2.53;65.57;100718.69;4931877;28;97654;-69
2021/01/11 02:04:30;;;;;;;13.75;11.23;;;;;;;2.55;65.63;100719.50;4930114;28;98697;-71
2021/01/11 02:07:04;;;;;;;11.57;9.13;;;;;;;2.38;66.26;100718.81;4931346;28;98585;-69
2021/01/11 02:10:02;;;;;;;11.63;8.65;;;;;;;2.57;65.66;100714.38;4916203;28;96716;-72
2021/01/11 02:12:46;;;;;;;12.45;9.52;;;;;;;2.52;65.57;100711.84;4930522;28;97309;-72
2021/01/11 02:15:15;;;;;;;11.68;9.85;;;;;;;2.40;66.13;100711.97;4913047;28;98462;-71
2021/01/11 02:17:52;;;;;;;12.25;11.05;;;;;;;2.17;67.36;100719.00;4895578;28;98460;-71
2021/01/11 02:20:40;;;;;;;16.83;10.88;;;;;;;2.39;66.13;100704.22;4921052;28;96544;-71
2021/01/11 02:23:37;;;;;;;14.32;10.80;;;;;;;2.22;66.28;100712.94;4931614;28;97104;-72
2021/01/11 02:26:17;;;;;;;11.90;10.00;;;;;;;2.25;66.68;100705.22;4932978;28;98903;-71
2021/01/11 02:29:09;;;;;;;10.75;9.48;;;;;;;2.19;66.43;100710.44;4933368;28;98603;-71
2021/01/11 02:31:35;;;;;;;11.63;9.70;;;;;;;2.17;66.45;100694.13;4930540;28;97181;-71
2021/01/11 02:34:02;;;;;;;11.57;9.25;;;;;;;2.18;66.90;100695.84;4915201;28;96974;-71
2021/01/11 02:36:28;;;;;;;11.15;8.98;;;;;;;2.40;65.70;100685.34;4913866;28;98550;-70
2021/01/11 02:38:55;;;;;;;9.15;8.25;;;;;;;2.58;65.13;100685.19;4931947;28;98444;-70
2021/01/11 02:41:22;;;;;;;9.63;8.73;;;;;;;2.50;65.18;100685.25;4924897;28;96861;-70
2021/01/11 02:43:48;;;;;;;11.13;8.63;;;;;;;2.44;65.24;100682.72;4912573;28;96711;-71
2021/01/11 02:46:14;;;;;;;12.38;10.50;;;;;;;2.61;64.69;100677.44;4915267;28;98477;-71
2021/01/11 02:48:56;;;;;;;13.55;10.55;;;;;;;2.59;64.47;100682.59;4928445;28;98965;-71
2021/01/11 02:51:26;;;;;;;12.82;11.15;;;;;;;2.53;64.96;100680.09;4935118;28;96466;-71
2021/01/11 02:54:15;;;;;;;12.68;11.25;;;;;;;2.66;64.13;100673.06;4934309;28;96897;-71
2021/01/11 02:56:47;;;;;;;14.10;11.02;;;;;;;2.62;64.12;100674.00;4928740;28;98568;-72
2021/01/11 02:59:24;;;;;;;13.55;11.15;;;;;;;2.40;64.71;100681.09;4933462;28;98539;-72
2021/01/11 03:01:54;;;;;;;11.43;10.25;;;;;;;2.24;65.94;100669.22;4918798;28;96655;-72
2021/01/11 03:04:22;;;;;;;13.23;11.63;;;;;;;2.00;66.83;100678.84;4915139;28;96915;-70
2021/01/11 03:06:59;;;;;;;14.15;9.90;;;;;;;2.23;66.20;100667.50;4915914;28;98648;-71
2021/01/11 03:09:26;;;;;;;13.93;11.05;;;;;;;2.20;66.50;100670.13;4916502;28;98506;-71
2021/01/11 03:11:52;;;;;;;13.82;10.38;;;;;;;2.27;66.28;100670.03;4934615;28;96582;-72
2021/01/11 03:14:22;;;;;;;12.50;9.35;;;;;;;2.36;65.84;100671.69;4936147;28;96730;-70
2021/01/11 03:16:48;;;;;;;11.25;8.73;;;;;;;2.36;64.96;100666.53;4933403;28;98560;-70
2021/01/11 03:19:15;;;;;;;10.65;8.90;;;;;;;2.28;65.32;100663.16;4934927;28;98609;-70
2021/01/11 03:21:41;;;;;;;11.35;8.00;;;;;;;2.34;64.95;100663.09;4917529;28;96929;-70
2021/01/11 03:24:08;;;;;;;10.77;8.55;;;;;;;2.30;65.38;100670.03;4915031;28;96846;-69
2021/01/11 03:26:35;;;;;;;10.10;8.40;;;;;;;2.33;65.37;100661.41;4929556;28;98535;-71
2021/01/11 03:29:01;;;;;;;9.45;7.85;;;;;;;2.56;63.87;100653.47;4935370;28;98739;-72
2021/01/11 03:31:28;;;;;;;10.25;8.10;;;;;;;2.60;63.31;100663.69;4933361;28;99358;-71
2021/01/11 03:33:55;;;;;;;12.70;10.57;;;;;;;2.71;62.91;100668.72;4934748;28;96567;-71
2021/01/11 03:36:21;;;;;;;8.23;7.35;;;;;;;2.59;63.00;100667.16;4922313;28;98465;-71
2021/01/11 03:38:48;;;;;;;8.27;7.43;;;;;;;2.66;63.10;100662.78;4914724;28;98879;-70
2021/01/11 03:41:15;;;;;;;12.25;8.32;;;;;;;2.58;63.11;100656.88;4914410;28;96689;-70
2021/01/11 03:43:42;;;;;;;10.70;8.07;;;;;;;2.58;63.17;100662.88;4918783;28;96820;-70
2021/01/11 03:46:08;;;;;;;8.73;7.72;;;;;;;2.59;63.17;100666.28;4926812;28;98541;-69
2021/01/11 03:48:35;;;;;;;10.77;8.05;;;;;;;2.50;63.72;100671.53;4914779;28;98505;-70
2021/01/11 03:51:01;;;;;;;14.20;7.93;;;;;;;2.39;64.21;100665.63;4918305;28;97921;-70
2021/01/11 03:53:28;;;;;;;9.45;6.85;;;;;;;2.25;64.76;100663.22;4935868;28;97172;-70
2021/01/11 03:55:54;;;;;;;8.90;6.43;;;;;;;2.16;65.37;100669.28;4932221;28;98478;-71
2021/01/11 03:58:21;;;;;;;10.20;6.63;;;;;;;2.23;64.43;100668.34;4924685;28;99000;-71
2021/01/11 04:00:48;;;;;;;7.80;6.35;;;;;;;2.41;63.89;100666.50;4913443;28;96911;-71
2021/01/11 04:03:15;;;;;;;7.65;6.88;;;;;;;2.53;63.11;100651.78;4914962;28;96895;-71
2021/01/11 04:05:45;;;;;;;9.70;7.15;;;;;;;2.54;62.71;100650.91;4924021;28;98622;-71
2021/01/11 04:08:12;;;;;;;10.23;7.07;;;;;;;1.89;64.86;100662.66;4934147;28;98611;-71
2021/01/11 04:10:38;;;;;;;9.02;6.32;;;;;;;1.98;65.48;100657.44;4933272;28;97493;-71
2021/01/11 04:13:05;;;;;;;8.20;7.40;;;;;;;2.14;65.34;100659.88;4935219;28;96923;-72
2021/01/11 04:15:31;;;;;;;9.23;8.27;;;;;;;2.16;65.14;100658.16;4925181;28;98672;-72
2021/01/11 04:17:58;;;;;;;8.23;7.28;;;;;;;2.29;64.37;100654.56;4914802;28;98878;-71
2021/01/11 04:20:25;;;;;;;10.02;8.10;;;;;;;2.29;64.60;100657.16;4921257;28;97333;-71
2021/01/11 04:22:51;;;;;;;9.10;7.50;;;;;;;2.49;63.40;100654.38;4934344;28;98802;-71
2021/01/11 04:25:18;;;;;;;8.07;6.35;;;;;;;2.55;62.75;100657.75;4928634;28;98464;-71
2021/01/11 04:27:44;;;;;;;7.20;6.47;;;;;;;2.12;62.45;100664.19;4914479;28;98518;-72
2021/01/11 04:30:11;;;;;;;9.20;6.80;;;;;;;2.11;63.28;100663.31;4917453;28;96830;-71
2021/01/11 04:32:40;;;;;;;10.85;7.20;;;;;;;2.04;63.79;100657.38;4932907;28;96669;-72
2021/01/11 04:35:08;;;;;;;6.85;6.00;;;;;;;2.08;64.14;100664.22;4933324;28;98547;-71
2021/01/11 04:37:35;;;;;;;8.38;7.28;;;;;;;2.13;63.56;100664.19;4931166;28;98188;-71
2021/01/11 04:40:01;;;;;;;9.10;6.85;;;;;;;2.01;64.43;100661.69;4933868;28;96779;-72
2021/01/11 04:42:32;;;;;;;7.00;5.88;;;;;;;2.15;63.83;100659.03;4933361;28;96722;-71
2021/01/11 04:44:59;;;;;;;7.70;6.32;;;;;;;2.05;64.36;100664.22;4933124;28;98467;-71
2021/01/11 04:47:25;;;;;;;7.30;6.15;;;;;;;1.92;64.89;100665.22;4924917;28;98961;-71
2021/01/11 04:49:53;;;;;;;8.90;6.45;;;;;;;1.96;64.41;100664.31;4913114;28;96882;-71
2021/01/11 04:52:19;;;;;;;6.50;5.90;;;;;;;2.13;63.55;100661.63;4914221;28;96648;-71
2021/01/11 04:54:51;;;;;;;7.60;6.00;;;;;;;2.21;62.99;100662.38;4931801;28;98899;-72
2021/01/11 04:57:21;;;;;;;7.55;6.40;;;;;;;1.72;64.78;100669.66;4931884;28;98796;-71
2021/01/11 04:59:50;;;;;;;7.05;6.05;;;;;;;1.99;64.29;100669.44;4898916;28;97188;-70
2021/01/11 05:02:20;;;;;;;8.77;6.47;;;;;;;2.08;64.27;100664.22;4933454;28;96750;-69
2021/01/11 05:04:48;;;;;;;10.35;7.68;;;;;;;2.04;64.25;100665.09;4929902;28;98667;-70
2021/01/11 05:07:17;;;;;;;8.18;6.43;;;;;;;2.17;63.68;100667.56;4913977;28;98416;-70
2021/01/11 05:09:44;;;;;;;6.75;5.95;;;;;;;2.24;63.02;100666.66;4896299;28;97401;-69
2021/01/11 05:12:12;;;;;;;9.90;6.90;;;;;;;1.67;64.35;100666.25;4912828;28;97182;-69
2021/01/11 05:14:41;;;;;;;7.88;6.63;;;;;;;1.70;65.21;100669.63;4918685;28;98502;-70
2021/01/11 05:17:07;;;;;;;9.68;6.28;;;;;;;1.67;64.22;100667.09;4914720;28;98457;-70
2021/01/11 05:19:34;;;;;;;8.23;6.80;;;;;;;1.69;63.89;100665.38;4896712;28;96708;-71
2021/01/11 05:22:00;;;;;;;10.25;6.43;;;;;;;1.64;64.33;100676.53;4914247;28;96751;-71
2021/01/11 05:24:46;;;;;;;7.25;6.55;;;;;;;1.66;64.47;100670.53;4918345;28;98694;-71
2021/01/11 05:27:12;;;;;;;11.88;7.50;;;;;;;1.64;64.66;100676.53;4933086;28;98614;-68
2021/01/11 05:29:38;;;;;;;10.25;7.60;;;;;;;1.37;66.07;100673.28;4931396;28;96884;-67
2021/01/11 05:32:06;;;;;;;8.82;7.82;;;;;;;1.22;66.63;100678.50;4921698;28;96934;-71
2021/01/11 05:34:45;;;;;;;9.02;8.10;;;;;;;1.39;65.94;100687.00;4913252;28;98619;-71
2021/01/11 05:37:32;;;;;;;8.85;7.82;;;;;;;1.35;64.97;100693.00;4924035;28;98249;-70
2021/01/11 05:40:12;;;;;;;9.95;7.25;;;;;;;1.39;64.07;100694.69;4933090;28;96559;-70
2021/01/11 05:42:39;;;;;;;8.23;7.43;;;;;;;1.42;64.61;100692.09;4932695;28;96715;-70
2021/01/11 05:45:12;;;;;;;8.20;7.35;;;;;;;1.49;64.55;100693.78;4931434;28;98560;-69
2021/01/11 05:47:58;;;;;;;9.85;7.43;;;;;;;1.29;65.52;100700.72;4933467;28;98643;-70
2021/01/11 05:50:28;;;;;;;8.05;7.25;;;;;;;1.50;64.26;100699.78;4929085;28;96658;-69
2021/01/11 05:52:55;;;;;;;8.77;7.85;;;;;;;1.54;64.32;100693.72;4914198;28;96598;-68
2021/01/11 05:55:26;;;;;;;8.40;7.60;;;;;;;1.58;63.77;100688.56;4913760;28;98715;-66
2021/01/11 05:57:59;;;;;;;9.77;7.32;;;;;;;1.71;63.61;100689.34;4933700;28;98420;-69
2021/01/11 06:00:30;;;;;;;9.70;6.77;;;;;;;1.78;62.94;100687.59;4931767;28;97201;-68
2021/01/11 06:02:57;;;;;;;9.85;6.90;;;;;;;1.60;64.09;100685.13;4929685;28;97210;-69
2021/01/11 06:05:24;;;;;;;8.10;6.25;;;;;;;1.76;63.30;100684.19;4931993;28;98666;-68
2021/01/11 06:07:51;;;;;;;14.77;7.22;;;;;;;1.50;64.27;100689.50;4929223;28;98466;-69
2021/01/11 06:10:18;;;;;;;8.38;7.07;;;;;;;1.43;64.87;100698.94;4913102;28;96953;-67
2021/01/11 06:12:44;;;;;;;8.85;7.13;;;;;;;1.65;64.35;100696.22;4914637;28;97050;-70
2021/01/11 06:15:12;;;;;;;9.02;6.95;;;;;;;1.92;63.17;100708.91;4933340;28;98735;-72
2021/01/11 06:17:40;;;;;;;9.45;6.95;;;;;;;1.39;65.57;100707.53;4931510;28;98443;-72
2021/01/11 06:20:22;;;;;;;10.63;6.95;;;;;;;1.36;65.42;100716.97;4921586;28;97986;-70
2021/01/11 06:22:49;;;;;;;11.00;6.55;;;;;;;1.50;65.25;100715.19;4933856;28;96930;-72
2021/01/11 06:25:24;;;;;;;12.10;7.35;;;;;;;1.33;66.25;100715.25;4917413;28;98491;-72
2021/01/11 06:28:08;;;;;;;13.52;8.48;;;;;;;1.31;66.45;100722.97;4915836;28;98432;-71
2021/01/11 06:30:34;;;;;;;9.75;8.25;;;;;;;1.48;64.49;100730.59;4933494;28;96922;-70
2021/01/11 06:33:07;;;;;;;10.85;9.45;;;;;;;1.39;65.05;100728.09;4925485;28;97152;-71
2021/01/11 06:35:41;;;;;;;16.88;12.25;;;;;;;1.48;64.21;100735.72;4927268;28;98584;-68
2021/01/11 06:38:18;;;;;;;18.10;12.70;;;;;;;1.30;64.71;100734.09;4925050;28;98516;-68
2021/01/11 06:40:48;;;;;;;12.98;11.57;;;;;;;1.40;65.36;100731.50;4925948;28;96689;-70
2021/01/11 06:43:15;;;;;;;10.55;8.32;;;;;;;1.72;63.59;100724.47;4921829;28;97966;-72
2021/01/11 06:45:42;;;;;;;13.80;9.40;;;;;;;1.71;63.57;100727.91;4936562;28;98484;-66
2021/01/11 06:48:14;;;;;;;13.48;11.48;;;;;;;1.60;64.13;100746.78;4934243;28;98494;-66
2021/01/11 06:50:48;;;;;;;12.27;10.70;;;;;;;1.61;64.85;100744.25;4933400;28;96671;-64
2021/01/11 06:53:25;;;;;;;11.45;9.25;;;;;;;1.21;66.89;100741.84;4934701;28;96959;-64
2021/01/11 06:56:07;;;;;;;9.95;8.80;;;;;;;1.26;67.16;100741.81;4934847;28;98541;-64
2021/01/11 06:58:40;;;;;;;12.65;9.48;;;;;;;1.17;67.64;100753.00;4935945;28;98694;-67
2021/01/11 07:01:13;;;;;;;9.88;8.88;;;;;;;1.20;67.67;100749.56;4932283;28;97092;-64
2021/01/11 07:03:46;;;;;;;11.07;9.90;;;;;;;1.45;66.32;100745.19;4932882;28;96664;-66
2021/01/11 07:06:43;;;;;;;10.18;9.00;;;;;;;1.23;67.33;100752.97;4930180;28;98573;-72
2021/01/11 07:09:10;;;;;;;13.43;10.68;;;;;;;1.23;67.53;100757.28;4928327;28;96518;-68
2021/01/11 07:11:38;;;;;;;12.43;9.75;;;;;;;1.19;67.83;100766.69;4934300;28;97496;-68
2021/01/11 07:14:05;;;;;;;13.10;8.98;;;;;;;1.29;67.54;100770.94;4930505;28;96663;-68
2021/01/11 07:16:40;;;;;;;15.50;10.55;;;;;;;1.38;66.69;100772.59;4927939;28;98641;-73
2021/01/11 07:19:08;;;;;;;10.52;9.43;;;;;;;1.45;66.70;100778.59;4936579;28;98705;-73
2021/01/11 07:21:35;;;;;;;14.05;10.00;;;;;;;1.32;67.54;100777.75;4936371;28;98004;-73
2021/01/11 07:24:03;;;;;;;14.98;10.80;;;;;;;1.27;67.83;100776.91;4933462;28;97028;-73
2021/01/11 07:26:30;;;;;;;10.18;8.57;;;;;;;1.38;67.49;100787.16;4924887;28;98635;-67
2021/01/11 07:29:07;;;;;;;12.65;10.02;;;;;;;1.38;67.99;100793.13;4928717;28;98408;-67
2021/01/11 07:31:39;;;;;;;12.65;10.57;;;;;;;1.39;67.97;100799.16;4926559;28;98013;-68
2021/01/11 07:34:16;;;;;;;13.15;9.70;;;;;;;1.52;67.20;100798.25;4930733;28;97059;-67
2021/01/11 07:36:49;;;;;;;17.38;11.70;;;;;;;1.50;67.06;100800.81;4932718;28;98766;-68
2021/01/11 07:39:19;;;;;;;12.38;10.55;;;;;;;1.51;66.76;100805.09;4931716;28;98600;-68
2021/01/11 07:41:50;;;;;;;15.15;10.80;;;;;;;1.33;68.36;100820.56;4934102;28;96838;-67
2021/01/11 07:44:36;;;;;;;13.35;10.55;;;;;;;1.54;67.04;100814.50;4934554;28;97224;-67
2021/01/11 07:47:08;;;;;;;11.32;10.13;;;;;;;1.60;66.59;100824.78;4929534;28;99112;-67
2021/01/11 07:49:36;;;;;;;13.48;10.35;;;;;;;1.37;67.37;100823.97;4934462;28;97408;-68
2021/01/11 07:52:07;;;;;;;14.13;9.65;;;;;;;1.48;66.65;100832.50;4930049;28;96690;-67
2021/01/11 07:54:35;;;;;;;13.57;11.40;;;;;;;1.50;66.40;100834.22;4935105;28;96660;-67
2021/01/11 07:57:02;;;;;;;10.93;9.82;;;;;;;1.42;67.04;100835.09;4928859;28;98586;-67
2021/01/11 07:59:28;;;;;;;17.23;11.35;;;;;;;1.63;66.70;100841.88;4935197;28;98393;-67
2021/01/11 08:01:56;;;;;;;14.05;10.30;;;;;;;1.52;66.99;100847.06;4929838;28;96979;-67
2021/01/11 08:04:23;;;;;;;16.58;9.93;;;;;;;1.30;67.53;100844.56;4930097;28;96667;-67
2021/01/11 08:06:56;;;;;;;12.18;10.98;;;;;;;1.39;67.60;100851.41;4933066;28;98591;-67
2021/01/11 08:09:28;;;;;;;15.30;10.60;;;;;;;1.53;67.59;100853.91;4934623;28;97592;-67
2021/01/11 08:12:16;;;;;;;17.67;11.95;;;;;;;1.76;66.96;100853.84;4934068;28;96824;-67
2021/01/11 08:14:46;;;;;;;12.63;11.30;;;;;;;1.80;67.27;100858.09;4917237;28;96892;-67
2021/01/11 08:17:21;;;;;;;12.50;11.25;;;;;;;1.82;67.73;100851.22;4914222;28;98864;-67
2021/01/11 08:19:55;;;;;;;12.93;10.27;;;;;;;1.97;67.60;100853.75;4931541;28;98768;-67
2021/01/11 08:22:22;;;;;;;16.08;12.50;;;;;;;1.82;68.71;100854.66;4933242;28;96649;-67
2021/01/11 08:24:49;;;;;;;14.02;11.38;;;;;;;1.96;68.26;100858.88;4935421;28;96655;-68
2021/01/11 08:27:22;;;;;;;13.65;12.20;;;;;;;1.99;68.70;100866.56;4935673;28;98438;-67
2021/01/11 08:29:48;;;;;;;16.30;11.90;;;;;;;2.06;69.01;100866.53;4934016;28;97494;-67
2021/01/11 08:32:17;;;;;;;14.30;12.57;;;;;;;2.13;69.32;100869.94;4933984;28;96564;-67
2021/01/11 08:34:43;;;;;;;20.70;12.57;;;;;;;2.21;69.34;100864.75;4930281;28;96997;-67
2021/01/11 08:37:19;;;;;;;14.43;12.77;;;;;;;2.37;68.89;100876.63;4926035;28;98719;-67
2021/01/11 08:40:25;;;;;;;13.57;12.18;;;;;;;2.42;68.65;100877.47;4933776;28;98566;-67
2021/01/11 08:42:52;;;;;;;17.67;12.38;;;;;;;2.46;68.90;100873.16;4934914;28;97989;-67
2021/01/11 08:45:26;;;;;;;13.73;12.32;;;;;;;2.57;68.86;100874.78;4934387;28;97614;-64
2021/01/11 08:48:25;;;;;;;16.40;13.03;;;;;;;2.62;69.11;100875.63;4935124;28;98698;-67
2021/01/11 08:50:52;;;;;;;15.07;12.98;;;;;;;2.75;68.48;100880.66;4934845;28;98644;-67
2021/01/11 08:53:34;;;;;;;19.33;14.65;;;;;;;2.76;68.41;100890.09;4935544;28;96687;-67
2021/01/11 08:56:01;;;;;;;16.20;14.43;;;;;;;2.81;68.27;100888.34;4935252;28;96614;-67
2021/01/11 08:58:28;;;;;;;18.30;13.80;;;;;;;2.84;68.93;100902.03;4933411;28;98558;-67
2021/01/11 09:01:11;;;;;;;17.10;15.07;;;;;;;2.83;69.34;100897.78;4933757;28;98765;-67
2021/01/11 09:03:47;;;;;;;15.48;11.27;;;;;;;2.30;69.01;100903.28;4932285;28;96859;-67
2021/01/11 09:06:33;;;;;;;13.77;11.82;;;;;;;2.28;67.73;100905.00;4933465;28;96966;-66
2021/01/11 09:09:10;;;;;;;16.92;14.90;;;;;;;2.15;67.78;100911.06;4919952;28;98627;-65
2021/01/11 09:11:37;;;;;;;19.02;15.27;;;;;;;2.28;67.96;100912.72;4914524;28;98482;-66
2021/01/11 09:14:14;;;;;;;19.95;17.92;;;;;;;2.47;68.44;100916.91;4925572;28;97636;-67
2021/01/11 09:16:41;;;;;;;22.02;16.90;;;;;;;2.49;68.42;100922.88;4933257;28;96509;-66
2021/01/11 09:19:11;;;;;;;18.55;16.05;;;;;;;2.83;68.04;100927.81;4932346;28;99047;-66
2021/01/11 09:21:41;;;;;;;16.50;13.82;;;;;;;2.93;68.29;100929.47;4933321;28;98454;-67
2021/01/11 09:24:08;;;;;;;22.17;19.98;;;;;;;2.70;66.72;100941.63;4920976;28;96756;-63
2021/01/11 09:26:35;;;;;;;32.20;24.30;;;;;;;2.31;66.94;100941.84;4915142;28;97457;-65
2021/01/11 09:29:02;;;;;;;24.20;20.42;;;;;;;2.19;67.91;100939.34;4922856;28;98845;-67
2021/01/11 09:31:28;;;;;;;24.05;20.40;;;;;;;2.41;69.23;100949.53;4933100;28;98335;-67
2021/01/11 09:34:00;;;;;;;20.75;16.38;;;;;;;2.70;68.55;100946.78;4933538;28;96684;-66
2021/01/11 09:36:36;;;;;;;17.90;16.10;;;;;;;2.54;67.55;100949.44;4933052;28;97613;-67
2021/01/11 09:39:08;;;;;;;21.90;18.25;;;;;;;2.40;68.49;100953.81;4932554;28;98537;-66
2021/01/11 09:41:51;;;;;;;17.98;16.08;;;;;;;2.55;68.64;100953.72;4931180;28;98524;-67
2021/01/11 09:44:17;;;;;;;20.38;18.25;;;;;;;2.80;67.98;100948.44;4932963;28;96522;-67
2021/01/11 09:46:46;;;;;;;18.70;16.67;;;;;;;2.67;68.39;100952.81;4932833;28;96876;-67
2021/01/11 09:49:13;;;;;;;19.83;16.17;;;;;;;2.79;69.22;100954.44;4932917;28;98753;-66
2021/01/11 09:51:39;;;;;;;16.25;13.63;;;;;;;2.67;67.64;100957.09;4928451;28;97989;-68
2021/01/11 09:54:06;;;;;;;80.75;53.10;;;;;;;2.65;68.06;100951.94;4916110;28;96868;-67
2021/01/11 09:56:33;;;;;;;64.90;47.10;;;;;;;2.91;66.57;100951.78;4917219;28;98003;-67
2021/01/11 09:59:00;;;;;;;47.85;35.45;;;;;;;2.95;67.84;100943.16;4916924;28;98471;-67
2021/01/11 10:01:42;;;;;;;33.10;25.02;;;;;;;2.99;67.95;100952.59;4930902;28;98549;-67
2021/01/11 10:04:10;;;;;;;20.20;17.25;;;;;;;3.25;67.02;100954.06;4936950;28;96642;-66
2021/01/11 10:06:49;;;;;;;24.25;19.33;;;;;;;3.36;66.74;100945.41;4919292;28;96817;-68
2021/01/11 10:09:20;;;;;;;25.65;19.35;;;;;;;3.54;66.42;100951.25;4917308;28;98685;-65
2021/01/11 10:11:48;;;;;;;19.50;17.10;;;;;;;3.55;66.39;100953.78;4932384;28;99175;-67
2021/01/11 10:14:14;;;;;;;21.88;17.83;;;;;;;3.51;66.60;100946.97;4937407;28;96555;-66
2021/01/11 10:16:42;;;;;;;20.77;16.95;;;;;;;3.41;67.01;100953.09;4933706;28;96953;-67
2021/01/11 10:19:18;;;;;;;21.58;17.08;;;;;;;3.53;67.55;100947.81;4936830;28;98593;-65
2021/01/11 10:21:45;;;;;;;16.55;14.85;;;;;;;3.74;66.91;100946.75;4935619;28;98821;-66
2021/01/11 10:24:11;;;;;;;19.30;17.25;;;;;;;3.77;67.42;100943.25;4935986;28;96584;-65
2021/01/11 10:26:40;;;;;;;17.77;15.20;;;;;;;3.81;67.16;100942.34;4933951;28;97777;-67
2021/01/11 10:29:07;;;;;;;28.73;18.08;;;;;;;3.77;67.76;100940.69;4936157;28;98315;-67
2021/01/11 10:31:34;;;;;;;24.42;17.88;;;;;;;3.61;68.09;100934.84;4933957;28;98616;-67
2021/01/11 10:34:00;;;;;;;22.90;17.08;;;;;;;3.85;67.18;100926.84;4936046;28;96908;-67
2021/01/11 10:36:27;;;;;;;18.90;16.02;;;;;;;3.99;66.92;100931.81;4935166;28;97459;-67
2021/01/11 10:38:53;;;;;;;22.38;16.17;;;;;;;4.09;66.57;100932.56;4935959;28;98524;-67
2021/01/11 10:41:20;;;;;;;28.80;17.98;;;;;;;4.15;66.15;100924.75;4933555;28;98717;-67
2021/01/11 10:43:47;;;;;;;20.10;16.23;;;;;;;4.04;65.88;100918.88;4935766;28;96833;-67
2021/01/11 10:46:16;;;;;;;18.80;14.77;;;;;;;4.09;66.68;100915.34;4935951;28;96686;-67
2021/01/11 10:48:43;;;;;;;18.05;14.70;;;;;;;4.20;65.39;100918.66;4920095;28;98462;-67
2021/01/11 10:51:11;;;;;;;17.83;15.90;;;;;;;4.31;66.61;100922.81;4915840;28;98983;-67
2021/01/11 10:53:41;;;;;;;15.68;14.07;;;;;;;4.41;66.75;100921.81;4915257;28;99097;-67
2021/01/11 10:56:07;;;;;;;12.88;11.45;;;;;;;4.38;66.06;100920.16;4917325;28;96940;-67
2021/01/11 10:58:34;;;;;;;18.48;12.63;;;;;;;4.35;65.21;100911.59;4926362;28;98544;-67
2021/01/11 11:01:01;;;;;;;15.35;12.88;;;;;;;4.10;66.46;100905.88;4935553;28;98551;-67
2021/01/11 11:03:27;;;;;;;15.10;13.50;;;;;;;3.79;66.43;100913.16;4934730;28;97469;-68
2021/01/11 11:05:55;;;;;;;19.23;13.60;;;;;;;3.98;67.64;100895.72;4935243;28;96648;-67
2021/01/11 11:08:21;;;;;;;22.13;15.05;;;;;;;4.17;66.39;100895.47;4933052;28;98578;-67
2021/01/11 11:10:47;;;;;;;21.30;15.65;;;;;;;4.16;66.35;100893.78;4934515;28;98408;-67
2021/01/11 11:13:14;;;;;;;19.75;15.30;;;;;;;4.49;66.00;100891.59;4935573;28;96888;-67
2021/01/11 11:15:46;;;;;;;21.67;15.13;;;;;;;4.55;66.20;100885.50;4934400;28;96807;-68
2021/01/11 11:18:13;;;;;;;18.17;14.00;;;;;;;4.68;65.51;100881.81;4935380;28;98503;-67
2021/01/11 11:20:40;;;;;;;36.40;32.53;;;;;;;4.27;64.00;100880.72;4933737;28;98545;-68
2021/01/11 11:23:06;;;;;;;36.40;24.13;;;;;;;4.41;65.42;100877.94;4934154;28;97822;-67
2021/01/11 11:25:33;;;;;;;16.48;14.75;;;;;;;4.66;64.69;100879.28;4934650;28;96849;-67
2021/01/11 11:27:59;;;;;;;16.42;12.57;;;;;;;4.87;63.63;100872.06;4934927;28;97657;-67
2021/01/11 11:30:26;;;;;;;16.05;13.00;;;;;;;4.92;64.02;100875.44;4926334;28;98431;-67
2021/01/11 11:32:52;;;;;;;19.88;15.18;;;;;;;4.83;63.66;100872.97;4935315;28;97506;-68
2021/01/11 11:35:19;;;;;;;17.83;15.18;;;;;;;4.91;63.68;100858.22;4934701;28;96777;-67